sensor_id;sensor_type;location;lat;lon;timestamp;pressure;altitude;pressure_sealevel;temperature
31528;BMP280;10206;48.012;10.030;2023-08-30T00:00:55;94249.22;;;16.10
31528;BMP280;10206;48.012;10.030;2023-08-30T00:03:22;94254.72;;;16.10
31528;BMP280;10206;48.012;10.030;2023-08-30T00:05:48;94243.22;;;16.13
31528;BMP280;10206;48.012;10.030;2023-08-30T00:08:14;94246.59;;;16.12
31528;BMP280;10206;48.012;10.030;2023-08-30T00:10:44;94241.81;;;16.12
31528;BMP280;10206;48.012;10.030;2023-08-30T00:13:11;94242.47;;;15.97
31528;BMP280;10206;48.012;10.030;2023-08-30T00:15:37;94247.53;;;16.03
31528;BMP280;10206;48.012;10.030;2023-08-30T00:18:03;94251.28;;;16.09
31528;BMP280;10206;48.012;10.030;2023-08-30T00:20:30;94255.16;;;16.04
31528;BMP280;10206;48.012;10.030;2023-08-30T00:22:56;94256.88;;;16.11
31528;BMP280;10206;48.012;10.030;2023-08-30T00:25:22;94254.94;;;16.14
31528;BMP280;10206;48.012;10.030;2023-08-30T00:27:48;94249.00;;;16.19
31528;BMP280;10206;48.012;10.030;2023-08-30T00:30:14;94253.88;;;16.21
31528;BMP280;10206;48.012;10.030;2023-08-30T00:32:40;94253.59;;;16.15
31528;BMP280;10206;48.012;10.030;2023-08-30T00:35:07;94250.16;;;16.14
31528;BMP280;10206;48.012;10.030;2023-08-30T00:37:33;94253.44;;;16.26
31528;BMP280;10206;48.012;10.030;2023-08-30T00:39:59;94245.97;;;16.13
31528;BMP280;10206;48.012;10.030;2023-08-30T00:42:25;94245.53;;;16.19
31528;BMP280;10206;48.012;10.030;2023-08-30T00:44:53;94247.16;;;16.24
31528;BMP280;10206;48.012;10.030;2023-08-30T00:47:19;94243.72;;;16.10
31528;BMP280;10206;48.012;10.030;2023-08-30T00:49:45;94238.41;;;15.98
31528;BMP280;10206;48.012;10.030;2023-08-30T00:52:12;94238.00;;;16.19
31528;BMP280;10206;48.012;10.030;2023-08-30T00:54:38;94241.91;;;16.14
31528;BMP280;10206;48.012;10.030;2023-08-30T00:57:05;94234.78;;;16.09
31528;BMP280;10206;48.012;10.030;2023-08-30T00:59:33;94233.09;;;16.02
31528;BMP280;10206;48.012;10.030;2023-08-30T01:02:00;94234.34;;;16.15
31528;BMP280;10206;48.012;10.030;2023-08-30T01:04:29;94229.56;;;16.15
31528;BMP280;10206;48.012;10.030;2023-08-30T01:06:55;94223.59;;;16.05
31528;BMP280;10206;48.012;10.030;2023-08-30T01:09:22;94220.69;;;15.88
31528;BMP280;10206;48.012;10.030;2023-08-30T01:12:08;94226.53;;;16.09
31528;BMP280;10206;48.012;10.030;2023-08-30T01:14:45;94232.03;;;16.09
31528;BMP280;10206;48.012;10.030;2023-08-30T01:17:13;94223.69;;;16.07
31528;BMP280;10206;48.012;10.030;2023-08-30T01:20:00;94222.38;;;16.08
31528;BMP280;10206;48.012;10.030;2023-08-30T01:25:17;94216.56;;;16.02
31528;BMP280;10206;48.012;10.030;2023-08-30T01:27:47;94215.44;;;15.94
31528;BMP280;10206;48.012;10.030;2023-08-30T01:30:14;94214.41;;;16.01
31528;BMP280;10206;48.012;10.030;2023-08-30T01:32:42;94198.81;;;16.05
31528;BMP280;10206;48.012;10.030;2023-08-30T01:35:09;94202.81;;;16.02
31528;BMP280;10206;48.012;10.030;2023-08-30T01:37:36;94194.28;;;15.96
31528;BMP280;10206;48.012;10.030;2023-08-30T01:40:04;94206.94;;;15.88
31528;BMP280;10206;48.012;10.030;2023-08-30T01:42:31;94200.38;;;15.95
31528;BMP280;10206;48.012;10.030;2023-08-30T01:44:59;94196.56;;;15.86
31528;BMP280;10206;48.012;10.030;2023-08-30T01:47:27;94189.72;;;15.87
31528;BMP280;10206;48.012;10.030;2023-08-30T01:49:54;94197.50;;;15.77
31528;BMP280;10206;48.012;10.030;2023-08-30T01:52:22;94195.97;;;15.74
31528;BMP280;10206;48.012;10.030;2023-08-30T01:54:51;94195.56;;;15.80
31528;BMP280;10206;48.012;10.030;2023-08-30T01:57:19;94196.59;;;15.73
31528;BMP280;10206;48.012;10.030;2023-08-30T01:59:45;94194.59;;;15.59
31528;BMP280;10206;48.012;10.030;2023-08-30T02:02:11;94198.72;;;15.74
31528;BMP280;10206;48.012;10.030;2023-08-30T02:04:37;94197.50;;;15.77
31528;BMP280;10206;48.012;10.030;2023-08-30T02:07:08;94189.47;;;15.97
31528;BMP280;10206;48.012;10.030;2023-08-30T02:10:03;94195.84;;;15.86
31528;BMP280;10206;48.012;10.030;2023-08-30T02:12:48;94203.13;;;15.95
31528;BMP280;10206;48.012;10.030;2023-08-30T02:15:17;94212.81;;;15.96
31528;BMP280;10206;48.012;10.030;2023-08-30T02:17:44;94208.56;;;15.93
31528;BMP280;10206;48.012;10.030;2023-08-30T02:20:11;94206.84;;;15.86
31528;BMP280;10206;48.012;10.030;2023-08-30T02:22:37;94208.19;;;16.00
31528;BMP280;10206;48.012;10.030;2023-08-30T02:25:04;94213.69;;;16.00
31528;BMP280;10206;48.012;10.030;2023-08-30T02:27:33;94199.78;;;15.96
31528;BMP280;10206;48.012;10.030;2023-08-30T02:30:00;94201.38;;;16.01
31528;BMP280;10206;48.012;10.030;2023-08-30T02:32:26;94193.31;;;16.05
31528;BMP280;10206;48.012;10.030;2023-08-30T02:34:53;94198.25;;;15.93
31528;BMP280;10206;48.012;10.030;2023-08-30T02:37:19;94199.34;;;16.02
31528;BMP280;10206;48.012;10.030;2023-08-30T02:39:45;94199.00;;;16.09
31528;BMP280;10206;48.012;10.030;2023-08-30T02:42:12;94193.75;;;15.70
31528;BMP280;10206;48.012;10.030;2023-08-30T02:44:38;94190.94;;;15.84
31528;BMP280;10206;48.012;10.030;2023-08-30T02:47:04;94190.22;;;15.84
31528;BMP280;10206;48.012;10.030;2023-08-30T02:49:30;94194.50;;;15.57
31528;BMP280;10206;48.012;10.030;2023-08-30T02:51:56;94203.00;;;15.77
31528;BMP280;10206;48.012;10.030;2023-08-30T02:54:22;94197.34;;;15.89
31528;BMP280;10206;48.012;10.030;2023-08-30T02:56:49;94205.22;;;15.81
31528;BMP280;10206;48.012;10.030;2023-08-30T02:59:16;94194.59;;;15.89
31528;BMP280;10206;48.012;10.030;2023-08-30T03:01:42;94198.47;;;15.54
31528;BMP280;10206;48.012;10.030;2023-08-30T03:04:09;94193.13;;;15.72
31528;BMP280;10206;48.012;10.030;2023-08-30T03:06:35;94192.84;;;15.66
31528;BMP280;10206;48.012;10.030;2023-08-30T03:09:02;94193.75;;;15.70
31528;BMP280;10206;48.012;10.030;2023-08-30T03:11:32;94187.06;;;15.60
31528;BMP280;10206;48.012;10.030;2023-08-30T03:13:58;94192.84;;;15.66
31528;BMP280;10206;48.012;10.030;2023-08-30T03:16:24;94186.63;;;15.65
31528;BMP280;10206;48.012;10.030;2023-08-30T03:18:51;94187.13;;;15.76
31528;BMP280;10206;48.012;10.030;2023-08-30T03:21:17;94183.97;;;15.67
31528;BMP280;10206;48.012;10.030;2023-08-30T03:23:43;94181.88;;;15.52
31528;BMP280;10206;48.012;10.030;2023-08-30T03:26:11;94180.13;;;15.59
31528;BMP280;10206;48.012;10.030;2023-08-30T03:28:38;94180.88;;;15.46
31528;BMP280;10206;48.012;10.030;2023-08-30T03:31:17;94178.34;;;15.36
31528;BMP280;10206;48.012;10.030;2023-08-30T03:33:44;94178.88;;;15.33
31528;BMP280;10206;48.012;10.030;2023-08-30T03:36:11;94178.28;;;15.21
31528;BMP280;10206;48.012;10.030;2023-08-30T03:38:38;94181.63;;;15.19
31528;BMP280;10206;48.012;10.030;2023-08-30T03:41:05;94180.22;;;15.18
31528;BMP280;10206;48.012;10.030;2023-08-30T03:43:32;94183.56;;;15.17
31528;BMP280;10206;48.012;10.030;2023-08-30T03:46:02;94180.53;;;15.11
31528;BMP280;10206;48.012;10.030;2023-08-30T03:48:31;94184.28;;;15.04
31528;BMP280;10206;48.012;10.030;2023-08-30T03:50:58;94191.81;;;15.03
31528;BMP280;10206;48.012;10.030;2023-08-30T03:53:24;94199.75;;;15.11
31528;BMP280;10206;48.012;10.030;2023-08-30T03:55:50;94200.06;;;15.17
31528;BMP280;10206;48.012;10.030;2023-08-30T03:58:18;94203.91;;;15.12
31528;BMP280;10206;48.012;10.030;2023-08-30T04:00:45;94204.16;;;15.16
31528;BMP280;10206;48.012;10.030;2023-08-30T04:03:14;94190.47;;;15.31
31528;BMP280;10206;48.012;10.030;2023-08-30T04:05:41;94194.41;;;15.42
31528;BMP280;10206;48.012;10.030;2023-08-30T04:08:07;94194.13;;;15.36
31528;BMP280;10206;48.012;10.030;2023-08-30T04:10:41;94194.13;;;15.49
31528;BMP280;10206;48.012;10.030;2023-08-30T04:13:08;94196.69;;;15.32
31528;BMP280;10206;48.012;10.030;2023-08-30T04:15:38;94195.38;;;15.33
31528;BMP280;10206;48.012;10.030;2023-08-30T04:18:05;94197.38;;;15.46
31528;BMP280;10206;48.012;10.030;2023-08-30T04:20:32;94194.31;;;15.40
31528;BMP280;10206;48.012;10.030;2023-08-30T04:22:59;94195.91;;;15.45
31528;BMP280;10206;48.012;10.030;2023-08-30T04:25:28;94190.44;;;15.45
31528;BMP280;10206;48.012;10.030;2023-08-30T04:27:54;94190.56;;;15.47
31528;BMP280;10206;48.012;10.030;2023-08-30T04:30:20;94193.09;;;15.43
31528;BMP280;10206;48.012;10.030;2023-08-30T04:32:46;94187.81;;;15.47
31528;BMP280;10206;48.012;10.030;2023-08-30T04:35:13;94187.81;;;15.47
31528;BMP280;10206;48.012;10.030;2023-08-30T04:37:39;94194.03;;;15.47
31528;BMP280;10206;48.012;10.030;2023-08-30T04:40:08;94193.16;;;15.45
31528;BMP280;10206;48.012;10.030;2023-08-30T04:42:38;94188.00;;;15.51
31528;BMP280;10206;48.012;10.030;2023-08-30T04:45:06;94192.97;;;15.54
31528;BMP280;10206;48.012;10.030;2023-08-30T04:47:33;94191.38;;;15.49
31528;BMP280;10206;48.012;10.030;2023-08-30T04:49:59;94192.09;;;15.50
31528;BMP280;10206;48.012;10.030;2023-08-30T04:52:26;94193.06;;;15.56
31528;BMP280;10206;48.012;10.030;2023-08-30T04:54:53;94203.97;;;15.54
31528;BMP280;10206;48.012;10.030;2023-08-30T04:57:19;94192.00;;;15.48
31528;BMP280;10206;48.012;10.030;2023-08-30T04:59:45;94193.16;;;15.58
31528;BMP280;10206;48.012;10.030;2023-08-30T05:02:12;94197.94;;;15.58
31528;BMP280;10206;48.012;10.030;2023-08-30T05:04:38;94193.47;;;15.64
31528;BMP280;10206;48.012;10.030;2023-08-30T05:07:04;94193.75;;;15.70
31528;BMP280;10206;48.012;10.030;2023-08-30T05:09:31;94195.09;;;15.69
31528;BMP280;10206;48.012;10.030;2023-08-30T05:11:58;94199.44;;;15.61
31528;BMP280;10206;48.012;10.030;2023-08-30T05:14:24;94201.47;;;15.74
31528;BMP280;10206;48.012;10.030;2023-08-30T05:16:50;94199.44;;;15.75
31528;BMP280;10206;48.012;10.030;2023-08-30T05:19:16;94201.88;;;15.82
31528;BMP280;10206;48.012;10.030;2023-08-30T05:21:43;94194.28;;;15.96
31528;BMP280;10206;48.012;10.030;2023-08-30T05:24:09;94201.44;;;15.88
31528;BMP280;10206;48.012;10.030;2023-08-30T05:26:36;94190.69;;;15.94
31528;BMP280;10206;48.012;10.030;2023-08-30T05:29:03;94183.16;;;15.94
31528;BMP280;10206;48.012;10.030;2023-08-30T05:31:29;94190.28;;;15.99
31528;BMP280;10206;48.012;10.030;2023-08-30T05:33:55;94189.63;;;16.14
31528;BMP280;10206;48.012;10.030;2023-08-30T05:36:21;94196.81;;;16.21
31528;BMP280;10206;48.012;10.030;2023-08-30T05:38:47;94188.56;;;16.21
31528;BMP280;10206;48.012;10.030;2023-08-30T05:41:13;94190.97;;;16.29
31528;BMP280;10206;48.012;10.030;2023-08-30T05:43:39;94193.34;;;16.21
31528;BMP280;10206;48.012;10.030;2023-08-30T05:46:06;94189.56;;;16.28
31528;BMP280;10206;48.012;10.030;2023-08-30T05:48:38;94186.00;;;16.41
31528;BMP280;10206;48.012;10.030;2023-08-30T05:51:04;94188.75;;;16.56
31528;BMP280;10206;48.012;10.030;2023-08-30T05:53:30;94188.38;;;16.48
31528;BMP280;10206;48.012;10.030;2023-08-30T05:55:56;94197.81;;;16.75
31528;BMP280;10206;48.012;10.030;2023-08-30T05:58:22;94198.88;;;16.68
31528;BMP280;10206;48.012;10.030;2023-08-30T06:00:48;94199.25;;;16.76
31528;BMP280;10206;48.012;10.030;2023-08-30T06:03:14;94209.00;;;16.79
31528;BMP280;10206;48.012;10.030;2023-08-30T06:05:40;94197.00;;;16.72
31528;BMP280;10206;48.012;10.030;2023-08-30T06:08:06;94201.34;;;16.93
31528;BMP280;10206;48.012;10.030;2023-08-30T06:10:34;94195.06;;;16.75
31528;BMP280;10206;48.012;10.030;2023-08-30T06:13:01;94195.22;;;16.94
31528;BMP280;10206;48.012;10.030;2023-08-30T06:15:28;94207.00;;;16.97
31528;BMP280;10206;48.012;10.030;2023-08-30T06:17:54;94203.38;;;16.92
31528;BMP280;10206;48.012;10.030;2023-08-30T06:20:20;94211.84;;;17.12
31528;BMP280;10206;48.012;10.030;2023-08-30T06:22:47;94214.66;;;17.14
31528;BMP280;10206;48.012;10.030;2023-08-30T06:25:15;94215.53;;;17.03
31528;BMP280;10206;48.012;10.030;2023-08-30T06:27:43;94226.03;;;17.06
31528;BMP280;10206;48.012;10.030;2023-08-30T06:30:12;94218.38;;;17.20
31528;BMP280;10206;48.012;10.030;2023-08-30T06:32:39;94214.09;;;17.17
31528;BMP280;10206;48.012;10.030;2023-08-30T06:35:05;94218.00;;;17.28
31528;BMP280;10206;48.012;10.030;2023-08-30T06:37:31;94221.00;;;17.34
31528;BMP280;10206;48.012;10.030;2023-08-30T06:39:57;94214.72;;;17.49
31528;BMP280;10206;48.012;10.030;2023-08-30T06:42:23;94217.41;;;17.47
31528;BMP280;10206;48.012;10.030;2023-08-30T06:44:51;94216.50;;;17.25
31528;BMP280;10206;48.012;10.030;2023-08-30T06:47:17;94220.25;;;17.49
31528;BMP280;10206;48.012;10.030;2023-08-30T06:49:43;94218.34;;;17.36
31528;BMP280;10206;48.012;10.030;2023-08-30T06:52:09;94224.88;;;17.44
31528;BMP280;10206;48.012;10.030;2023-08-30T06:54:35;94227.91;;;17.51
31528;BMP280;10206;48.012;10.030;2023-08-30T06:57:02;94218.97;;;17.52
31528;BMP280;10206;48.012;10.030;2023-08-30T06:59:29;94222.53;;;17.55
31528;BMP280;10206;48.012;10.030;2023-08-30T07:01:55;94222.63;;;17.74
31528;BMP280;10206;48.012;10.030;2023-08-30T07:04:22;94218.38;;;17.54
31528;BMP280;10206;48.012;10.030;2023-08-30T07:06:48;94207.44;;;17.56
31528;BMP280;10206;48.012;10.030;2023-08-30T07:09:14;94214.22;;;17.88
31528;BMP280;10206;48.012;10.030;2023-08-30T07:11:43;94213.41;;;18.03
31528;BMP280;10206;48.012;10.030;2023-08-30T07:14:13;94212.88;;;17.89
31528;BMP280;10206;48.012;10.030;2023-08-30T07:16:40;94207.06;;;17.98
31528;BMP280;10206;48.012;10.030;2023-08-30T07:19:06;94212.13;;;18.06
31528;BMP280;10206;48.012;10.030;2023-08-30T07:21:33;94210.66;;;17.85
31528;BMP280;10206;48.012;10.030;2023-08-30T07:24:02;94211.13;;;17.97
31528;BMP280;10206;48.012;10.030;2023-08-30T07:26:28;94199.22;;;18.10
31528;BMP280;10206;48.012;10.030;2023-08-30T07:28:54;94198.28;;;17.69
31528;BMP280;10206;48.012;10.030;2023-08-30T07:31:20;94197.88;;;18.11
31528;BMP280;10206;48.012;10.030;2023-08-30T07:33:47;94190.50;;;17.98
31528;BMP280;10206;48.012;10.030;2023-08-30T07:36:13;94195.63;;;18.25
31528;BMP280;10206;48.012;10.030;2023-08-30T07:38:39;94194.69;;;18.56
31528;BMP280;10206;48.012;10.030;2023-08-30T07:41:05;94192.03;;;18.21
31528;BMP280;10206;48.012;10.030;2023-08-30T07:43:31;94188.44;;;18.18
31528;BMP280;10206;48.012;10.030;2023-08-30T07:45:58;94190.69;;;18.22
31528;BMP280;10206;48.012;10.030;2023-08-30T07:48:25;94189.13;;;18.36
31528;BMP280;10206;48.012;10.030;2023-08-30T07:50:51;94195.63;;;18.82
31528;BMP280;10206;48.012;10.030;2023-08-30T07:53:17;94204.28;;;18.73
31528;BMP280;10206;48.012;10.030;2023-08-30T07:55:47;94197.16;;;19.07
31528;BMP280;10206;48.012;10.030;2023-08-30T07:58:13;94201.38;;;19.08
31528;BMP280;10206;48.012;10.030;2023-08-30T08:00:40;94198.88;;;18.77
31528;BMP280;10206;48.012;10.030;2023-08-30T08:03:06;94191.72;;;19.09
31528;BMP280;10206;48.012;10.030;2023-08-30T08:05:32;94195.91;;;19.31
31528;BMP280;10206;48.012;10.030;2023-08-30T08:08:00;94189.81;;;19.35
31528;BMP280;10206;48.012;10.030;2023-08-30T08:10:27;94196.03;;;19.14
31528;BMP280;10206;48.012;10.030;2023-08-30T08:12:53;94194.19;;;19.64
31528;BMP280;10206;48.012;10.030;2023-08-30T08:15:19;94194.78;;;19.82
31528;BMP280;10206;48.012;10.030;2023-08-30T08:17:45;94193.16;;;20.20
31528;BMP280;10206;48.012;10.030;2023-08-30T08:20:12;94194.53;;;19.52
31528;BMP280;10206;48.012;10.030;2023-08-30T08:22:38;94195.97;;;19.98
31528;BMP280;10206;48.012;10.030;2023-08-30T08:25:04;94206.44;;;20.25
31528;BMP280;10206;48.012;10.030;2023-08-30T08:27:30;94203.31;;;20.37
31528;BMP280;10206;48.012;10.030;2023-08-30T08:29:56;94194.16;;;20.07
31528;BMP280;10206;48.012;10.030;2023-08-30T08:32:23;94195.63;;;20.33
31528;BMP280;10206;48.012;10.030;2023-08-30T08:34:49;94195.59;;;20.57
31528;BMP280;10206;48.012;10.030;2023-08-30T08:37:15;94194.66;;;20.49
31528;BMP280;10206;48.012;10.030;2023-08-30T08:39:42;94201.09;;;20.31
31528;BMP280;10206;48.012;10.030;2023-08-30T08:42:08;94197.19;;;20.17
31528;BMP280;10206;48.012;10.030;2023-08-30T08:44:35;94196.41;;;20.38
31528;BMP280;10206;48.012;10.030;2023-08-30T08:47:02;94189.31;;;19.62
31528;BMP280;10206;48.012;10.030;2023-08-30T08:49:29;94195.50;;;19.82
31528;BMP280;10206;48.012;10.030;2023-08-30T08:51:57;94201.06;;;19.84
31528;BMP280;10206;48.012;10.030;2023-08-30T08:54:23;94198.06;;;20.71
31528;BMP280;10206;48.012;10.030;2023-08-30T08:56:50;94199.31;;;20.66
31528;BMP280;10206;48.012;10.030;2023-08-30T08:59:16;94201.66;;;19.81
31528;BMP280;10206;48.012;10.030;2023-08-30T09:01:43;94199.28;;;20.16
31528;BMP280;10206;48.012;10.030;2023-08-30T09:04:11;94204.09;;;20.39
31528;BMP280;10206;48.012;10.030;2023-08-30T09:06:38;94207.94;;;20.28
31528;BMP280;10206;48.012;10.030;2023-08-30T09:09:09;94209.16;;;20.47
31528;BMP280;10206;48.012;10.030;2023-08-30T09:11:36;94198.91;;;20.28
31528;BMP280;10206;48.012;10.030;2023-08-30T09:14:02;94200.09;;;20.96
31528;BMP280;10206;48.012;10.030;2023-08-30T09:16:28;94201.19;;;21.10
31528;BMP280;10206;48.012;10.030;2023-08-30T09:19:01;94203.38;;;20.88
31528;BMP280;10206;48.012;10.030;2023-08-30T09:21:27;94202.00;;;21.15
31528;BMP280;10206;48.012;10.030;2023-08-30T09:24:01;94205.84;;;22.20
31528;BMP280;10206;48.012;10.030;2023-08-30T09:26:29;94193.72;;;22.75
31528;BMP280;10206;48.012;10.030;2023-08-30T09:29:04;94193.25;;;22.49
31528;BMP280;10206;48.012;10.030;2023-08-30T09:31:34;94186.38;;;21.57
31528;BMP280;10206;48.012;10.030;2023-08-30T09:34:01;94187.31;;;21.38
31528;BMP280;10206;48.012;10.030;2023-08-30T09:36:39;94190.19;;;22.03
31528;BMP280;10206;48.012;10.030;2023-08-30T09:39:09;94192.03;;;22.24
31528;BMP280;10206;48.012;10.030;2023-08-30T09:41:42;94189.56;;;22.40
31528;BMP280;10206;48.012;10.030;2023-08-30T09:44:15;94189.72;;;23.24
31528;BMP280;10206;48.012;10.030;2023-08-30T09:46:46;94179.56;;;22.99
31528;BMP280;10206;48.012;10.030;2023-08-30T09:49:13;94177.28;;;23.72
31528;BMP280;10206;48.012;10.030;2023-08-30T09:51:41;94174.69;;;22.97
31528;BMP280;10206;48.012;10.030;2023-08-30T09:54:15;94177.44;;;21.90
31528;BMP280;10206;48.012;10.030;2023-08-30T09:56:44;94179.94;;;22.10
31528;BMP280;10206;48.012;10.030;2023-08-30T09:59:14;94173.59;;;22.39
31528;BMP280;10206;48.012;10.030;2023-08-30T10:01:42;94170.03;;;22.36
31528;BMP280;10206;48.012;10.030;2023-08-30T10:04:10;94181.31;;;21.79
31528;BMP280;10206;48.012;10.030;2023-08-30T10:06:40;94173.53;;;22.03
31528;BMP280;10206;48.012;10.030;2023-08-30T10:09:07;94168.59;;;22.69
31528;BMP280;10206;48.012;10.030;2023-08-30T10:11:38;94168.94;;;22.87
31528;BMP280;10206;48.012;10.030;2023-08-30T10:14:07;94166.19;;;23.29
31528;BMP280;10206;48.012;10.030;2023-08-30T10:16:48;94166.66;;;23.17
31528;BMP280;10206;48.012;10.030;2023-08-30T10:19:24;94168.59;;;23.07
31528;BMP280;10206;48.012;10.030;2023-08-30T10:22:03;94152.88;;;23.71
31528;BMP280;10206;48.012;10.030;2023-08-30T10:24:35;94158.44;;;23.69
31528;BMP280;10206;48.012;10.030;2023-08-30T10:27:04;94170.72;;;24.04
31528;BMP280;10206;48.012;10.030;2023-08-30T10:29:33;94168.91;;;24.26
31528;BMP280;10206;48.012;10.030;2023-08-30T10:32:04;94164.75;;;24.91
31528;BMP280;10206;48.012;10.030;2023-08-30T10:34:35;94168.97;;;24.98
31528;BMP280;10206;48.012;10.030;2023-08-30T10:37:05;94167.72;;;25.11
31528;BMP280;10206;48.012;10.030;2023-08-30T10:39:39;94164.56;;;25.55
31528;BMP280;10206;48.012;10.030;2023-08-30T10:42:13;94158.88;;;25.43
31528;BMP280;10206;48.012;10.030;2023-08-30T10:44:59;94157.44;;;25.32
31528;BMP280;10206;48.012;10.030;2023-08-30T10:47:29;94154.41;;;25.05
31528;BMP280;10206;48.012;10.030;2023-08-30T10:49:57;94150.97;;;24.39
31528;BMP280;10206;48.012;10.030;2023-08-30T10:52:25;94150.94;;;24.35
31528;BMP280;10206;48.012;10.030;2023-08-30T10:54:51;94149.00;;;24.52
31528;BMP280;10206;48.012;10.030;2023-08-30T10:57:25;94149.75;;;23.47
31528;BMP280;10206;48.012;10.030;2023-08-30T11:00:22;94142.38;;;23.67
31528;BMP280;10206;48.012;10.030;2023-08-30T11:02:50;94147.91;;;23.63
31528;BMP280;10206;48.012;10.030;2023-08-30T11:05:21;94138.53;;;23.43
31528;BMP280;10206;48.012;10.030;2023-08-30T11:07:48;94135.25;;;23.58
31528;BMP280;10206;48.012;10.030;2023-08-30T11:10:17;94134.47;;;24.00
31528;BMP280;10206;48.012;10.030;2023-08-30T11:12:44;94136.66;;;24.09
31528;BMP280;10206;48.012;10.030;2023-08-30T11:15:12;94133.81;;;24.05
31528;BMP280;10206;48.012;10.030;2023-08-30T11:17:41;94132.47;;;24.08
31528;BMP280;10206;48.012;10.030;2023-08-30T11:20:15;94139.00;;;23.75
31528;BMP280;10206;48.012;10.030;2023-08-30T11:22:46;94138.28;;;23.27
31528;BMP280;10206;48.012;10.030;2023-08-30T11:25:14;94131.19;;;22.78
31528;BMP280;10206;48.012;10.030;2023-08-30T11:27:41;94139.63;;;23.22
31528;BMP280;10206;48.012;10.030;2023-08-30T11:30:09;94133.00;;;23.45
31528;BMP280;10206;48.012;10.030;2023-08-30T11:32:36;94132.91;;;22.55
31528;BMP280;10206;48.012;10.030;2023-08-30T11:35:03;94140.63;;;22.99
31528;BMP280;10206;48.012;10.030;2023-08-30T11:37:29;94138.63;;;23.03
31528;BMP280;10206;48.012;10.030;2023-08-30T11:39:56;94134.13;;;22.86
31528;BMP280;10206;48.012;10.030;2023-08-30T11:42:22;94136.94;;;22.88
31528;BMP280;10206;48.012;10.030;2023-08-30T11:44:50;94137.16;;;23.00
31528;BMP280;10206;48.012;10.030;2023-08-30T11:47:24;94139.13;;;23.35
31528;BMP280;10206;48.012;10.030;2023-08-30T11:49:54;94137.31;;;23.54
31528;BMP280;10206;48.012;10.030;2023-08-30T11:52:21;94131.91;;;23.64
31528;BMP280;10206;48.012;10.030;2023-08-30T11:54:50;94135.91;;;23.53
31528;BMP280;10206;48.012;10.030;2023-08-30T11:57:17;94140.44;;;23.30
31528;BMP280;10206;48.012;10.030;2023-08-30T11:59:44;94141.97;;;23.89
31528;BMP280;10206;48.012;10.030;2023-08-30T12:02:12;94146.56;;;24.22
31528;BMP280;10206;48.012;10.030;2023-08-30T12:04:43;94143.09;;;24.24
31528;BMP280;10206;48.012;10.030;2023-08-30T12:07:24;94140.44;;;24.34
31528;BMP280;10206;48.012;10.030;2023-08-30T12:09:50;94128.22;;;24.65
31528;BMP280;10206;48.012;10.030;2023-08-30T12:12:16;94132.97;;;24.52
31528;BMP280;10206;48.012;10.030;2023-08-30T12:14:43;94137.66;;;25.05
31528;BMP280;10206;48.012;10.030;2023-08-30T12:17:09;94143.34;;;25.20
31528;BMP280;10206;48.012;10.030;2023-08-30T12:19:38;94139.75;;;25.07
31528;BMP280;10206;48.012;10.030;2023-08-30T12:22:06;94132.69;;;24.98
31528;BMP280;10206;48.012;10.030;2023-08-30T12:24:46;94142.63;;;25.15
31528;BMP280;10206;48.012;10.030;2023-08-30T12:27:13;94129.72;;;24.78
31528;BMP280;10206;48.012;10.030;2023-08-30T12:29:39;94127.19;;;24.34
31528;BMP280;10206;48.012;10.030;2023-08-30T12:32:06;94128.19;;;23.49
31528;BMP280;10206;48.012;10.030;2023-08-30T12:34:33;94123.97;;;23.46
31528;BMP280;10206;48.012;10.030;2023-08-30T12:36:59;94132.84;;;24.38
31528;BMP280;10206;48.012;10.030;2023-08-30T12:39:26;94124.44;;;23.78
31528;BMP280;10206;48.012;10.030;2023-08-30T12:41:52;94122.53;;;23.93
31528;BMP280;10206;48.012;10.030;2023-08-30T12:44:18;94119.13;;;24.01
31528;BMP280;10206;48.012;10.030;2023-08-30T12:46:44;94127.88;;;24.33
31528;BMP280;10206;48.012;10.030;2023-08-30T12:49:10;94118.28;;;23.88
31528;BMP280;10206;48.012;10.030;2023-08-30T12:51:36;94121.50;;;24.26
31528;BMP280;10206;48.012;10.030;2023-08-30T12:54:02;94110.06;;;23.46
31528;BMP280;10206;48.012;10.030;2023-08-30T12:56:29;94108.69;;;23.47
31528;BMP280;10206;48.012;10.030;2023-08-30T12:58:55;94120.34;;;23.88
31528;BMP280;10206;48.012;10.030;2023-08-30T13:01:21;94111.84;;;23.75
31528;BMP280;10206;48.012;10.030;2023-08-30T13:03:48;94111.28;;;23.83
31528;BMP280;10206;48.012;10.030;2023-08-30T13:06:14;94116.41;;;23.07
31528;BMP280;10206;48.012;10.030;2023-08-30T13:08:40;94109.91;;;23.36
31528;BMP280;10206;48.012;10.030;2023-08-30T13:11:06;94111.53;;;23.06
31528;BMP280;10206;48.012;10.030;2023-08-30T13:13:32;94108.03;;;23.05
31528;BMP280;10206;48.012;10.030;2023-08-30T13:15:58;94114.00;;;23.31
31528;BMP280;10206;48.012;10.030;2023-08-30T13:18:25;94112.50;;;23.26
31528;BMP280;10206;48.012;10.030;2023-08-30T13:20:54;94102.72;;;23.69
31528;BMP280;10206;48.012;10.030;2023-08-30T13:23:21;94109.00;;;23.24
31528;BMP280;10206;48.012;10.030;2023-08-30T13:25:48;94110.66;;;23.39
31528;BMP280;10206;48.012;10.030;2023-08-30T13:28:17;94107.72;;;23.29
31528;BMP280;10206;48.012;10.030;2023-08-30T13:30:46;94106.94;;;22.83
31528;BMP280;10206;48.012;10.030;2023-08-30T13:33:13;94102.47;;;23.51
31528;BMP280;10206;48.012;10.030;2023-08-30T13:35:42;94104.38;;;23.40
31528;BMP280;10206;48.012;10.030;2023-08-30T13:38:08;94101.06;;;23.50
31528;BMP280;10206;48.012;10.030;2023-08-30T13:40:34;94094.97;;;23.61
31528;BMP280;10206;48.012;10.030;2023-08-30T13:43:00;94094.84;;;23.53
31528;BMP280;10206;48.012;10.030;2023-08-30T13:45:26;94089.97;;;23.06
31528;BMP280;10206;48.012;10.030;2023-08-30T13:47:52;94098.59;;;23.24
31528;BMP280;10206;48.012;10.030;2023-08-30T13:50:20;94094.78;;;23.04
31528;BMP280;10206;48.012;10.030;2023-08-30T13:52:47;94096.19;;;23.03
31528;BMP280;10206;48.012;10.030;2023-08-30T13:55:13;94091.09;;;23.37
31528;BMP280;10206;48.012;10.030;2023-08-30T13:57:39;94094.97;;;23.63
31528;BMP280;10206;48.012;10.030;2023-08-30T14:00:06;94086.25;;;22.92
31528;BMP280;10206;48.012;10.030;2023-08-30T14:02:35;94097.09;;;22.76